Time;durP1;ratioP1;P1;durP2;ratioP2;P2;SDS_P1;SDS_P2;PMS_P1;PMS_P2;Temp;Humidity;BMP_temperature;BMP_pressure;BME280_temperature;BME280_humidity;BME280_pressure;Samples;Min_cycle;Max_cycle;Signal;HPM_P1;HPM_P2
2022/10/31 00:00:45;;;;;;;20.83;10.10;;;11.20;99.90;;;;;;5190656;28;20330;-73
2022/10/31 00:03:36;;;;;;;24.63;9.45;;;11.20;99.90;;;;;;5198997;28;20942;-74
2022/10/31 00:06:40;;;;;;;18.58;8.20;;;11.20;99.90;;;;;;5192857;28;20054;-73
2022/10/31 00:09:31;;;;;;;15.32;8.00;;;11.20;99.90;;;;;;5207208;28;20059;-74
2022/10/31 00:12:23;;;;;;;14.85;8.48;;;11.10;99.90;;;;;;5192857;28;20025;-74
2022/10/31 00:15:14;;;;;;;16.35;9.55;;;11.10;99.90;;;;;;5204218;28;20035;-74
2022/10/31 00:18:10;;;;;;;11.63;7.20;;;11.10;99.90;;;;;;5206488;28;20196;-74
2022/10/31 00:21:07;;;;;;;15.68;9.27;;;11.20;99.90;;;;;;5208069;28;20035;-74
2022/10/31 00:24:02;;;;;;;11.20;7.40;;;11.20;99.90;;;;;;5209046;28;20357;-74
2022/10/31 00:26:56;;;;;;;17.30;9.10;;;11.20;99.90;;;;;;5203835;28;20026;-74
2022/10/31 00:29:47;;;;;;;15.35;8.65;;;11.20;99.90;;;;;;5186976;28;20050;-74
2022/10/31 00:32:41;;;;;;;11.75;7.40;;;11.10;99.90;;;;;;5195024;28;20331;-75
2022/10/31 00:35:32;;;;;;;12.60;7.22;;;10.90;99.90;;;;;;5207100;28;20040;-74
2022/10/31 00:38:24;;;;;;;13.40;7.53;;;10.80;99.90;;;;;;5205650;28;20237;-73
2022/10/31 00:41:20;;;;;;;13.23;7.97;;;10.80;99.90;;;;;;5207934;28;20037;-73
2022/10/31 00:44:14;;;;;;;11.65;7.38;;;10.80;99.90;;;;;;5207697;28;20238;-72
2022/10/31 00:47:05;;;;;;;13.88;6.82;;;10.80;99.90;;;;;;5207082;28;20025;-72
2022/10/31 00:50:01;;;;;;;17.45;8.00;;;10.80;99.90;;;;;;5206598;28;20021;-73
2022/10/31 00:52:55;;;;;;;10.68;7.63;;;10.80;99.90;;;;;;5205990;28;20036;-72
2022/10/31 00:55:47;;;;;;;14.68;8.25;;;10.80;99.90;;;;;;5206770;28;20025;-73
2022/10/31 00:58:44;;;;;;;15.07;7.63;;;10.70;99.90;;;;;;5206406;28;20013;-72
2022/10/31 01:01:35;;;;;;;14.65;8.00;;;10.70;99.90;;;;;;5206117;28;20033;-73
2022/10/31 01:04:27;;;;;;;15.80;7.45;;;10.80;99.90;;;;;;5176700;28;20045;-75
2022/10/31 01:07:21;;;;;;;16.65;7.18;;;10.80;99.90;;;;;;5183512;28;20229;-74
2022/10/31 01:10:12;;;;;;;20.02;7.63;;;10.80;99.90;;;;;;5186736;28;20032;-74
2022/10/31 01:13:04;;;;;;;13.35;7.90;;;10.70;99.90;;;;;;5189978;28;20043;-72
2022/10/31 01:15:57;;;;;;;11.95;7.03;;;10.70;99.90;;;;;;5207623;28;20041;-75
2022/10/31 01:18:51;;;;;;;14.38;7.72;;;10.80;99.90;;;;;;5189843;28;20034;-75
2022/10/31 01:21:42;;;;;;;13.50;8.07;;;10.80;99.90;;;;;;5188286;28;20323;-75
2022/10/31 01:24:34;;;;;;;12.73;7.10;;;10.80;99.90;;;;;;5186030;28;20038;-72
2022/10/31 01:27:30;;;;;;;11.32;6.80;;;10.70;99.90;;;;;;5183873;28;20028;-74
2022/10/31 01:30:21;;;;;;;15.13;8.38;;;10.80;99.90;;;;;;5194890;28;20123;-73
2022/10/31 01:33:13;;;;;;;15.43;7.97;;;10.80;99.90;;;;;;5205825;28;20021;-75
2022/10/31 01:36:12;;;;;;;12.25;6.63;;;10.80;99.90;;;;;;5193757;28;20034;-73
2022/10/31 01:39:06;;;;;;;11.50;7.55;;;10.80;99.90;;;;;;5205505;28;20021;-75
2022/10/31 01:41:58;;;;;;;11.13;6.72;;;10.80;99.90;;;;;;5204852;28;20037;-75
2022/10/31 01:44:57;;;;;;;11.27;6.50;;;10.80;99.90;;;;;;5204262;28;20043;-75
2022/10/31 01:47:52;;;;;;;10.15;6.20;;;10.80;99.90;;;;;;5206105;28;20040;-74
2022/10/31 01:50:46;;;;;;;8.75;5.80;;;10.80;99.90;;;;;;5205118;28;20031;-73
2022/10/31 01:53:39;;;;;;;11.88;5.85;;;10.80;99.90;;;;;;5204498;28;20030;-74
2022/10/31 01:56:34;;;;;;;8.48;5.93;;;10.80;99.90;;;;;;5204528;28;20210;-74
2022/10/31 01:59:30;;;;;;;8.93;5.20;;;10.80;99.90;;;;;;5203428;28;20032;-73
2022/10/31 02:02:26;;;;;;;12.27;6.32;;;10.80;99.90;;;;;;5183152;28;20037;-73
2022/10/31 02:05:23;;;;;;;8.50;6.20;;;10.80;99.90;;;;;;5173472;28;20230;-74
2022/10/31 02:08:30;;;;;;;9.10;6.25;;;10.80;99.90;;;;;;5192318;28;20036;-75
2022/10/31 02:11:22;;;;;;;7.82;5.90;;;10.80;99.90;;;;;;5202733;28;20219;-74
2022/10/31 02:14:16;;;;;;;8.68;5.45;;;10.70;99.90;;;;;;5202480;28;20344;-74
2022/10/31 02:17:08;;;;;;;7.18;5.13;;;10.60;99.90;;;;;;5202736;28;20037;-74
2022/10/31 02:20:15;;;;;;;7.38;4.57;;;10.60;99.90;;;;;;5202943;28;20039;-74
2022/10/31 02:23:18;;;;;;;8.20;5.13;;;10.50;99.90;;;;;;5204302;28;20037;-74
2022/10/31 02:26:28;;;;;;;7.05;4.85;;;10.40;99.90;;;;;;5204353;28;20037;-74
2022/10/31 02:29:38;;;;;;;7.22;4.50;;;10.40;99.90;;;;;;5190196;28;20033;-74
2022/10/31 02:32:36;;;;;;;5.65;4.18;;;10.30;99.90;;;;;;5198590;28;20368;-74
2022/10/31 02:35:44;;;;;;;6.10;4.25;;;10.30;99.90;;;;;;5203865;28;20013;-74
2022/10/31 02:38:57;;;;;;;6.57;4.43;;;10.20;99.90;;;;;;5204330;28;20241;-74
2022/10/31 02:42:07;;;;;;;4.93;3.60;;;10.20;99.90;;;;;;5205708;28;20055;-74
2022/10/31 02:45:12;;;;;;;5.93;4.28;;;10.20;99.90;;;;;;5203378;28;20040;-72
2022/10/31 02:48:13;;;;;;;5.15;3.88;;;10.10;99.90;;;;;;5201960;28;20045;-73
2022/10/31 02:51:05;;;;;;;5.57;3.90;;;10.00;99.90;;;;;;5200987;28;20043;-75
2022/10/31 02:53:57;;;;;;;4.28;3.20;;;10.10;99.90;;;;;;5202649;28;20214;-72
2022/10/31 02:56:50;;;;;;;4.90;3.72;;;10.00;99.90;;;;;;5203626;28;20083;-71
2022/10/31 02:59:50;;;;;;;5.05;3.95;;;10.00;99.90;;;;;;5201984;28;20025;-73
2022/10/31 03:02:51;;;;;;;5.20;4.20;;;10.00;99.90;;;;;;5202845;28;20039;-73
2022/10/31 03:05:53;;;;;;;3.97;2.90;;;10.00;99.90;;;;;;5171937;28;20038;-73
2022/10/31 03:08:45;;;;;;;5.05;3.90;;;10.00;99.90;;;;;;5188077;28;20250;-72
2022/10/31 03:11:48;;;;;;;5.03;3.53;;;10.00;99.90;;;;;;5203373;28;20246;-73
2022/10/31 03:15:12;;;;;;;3.72;3.00;;;10.00;99.90;;;;;;5202359;28;20229;-72
2022/10/31 03:18:07;;;;;;;8.40;3.38;;;10.00;99.90;;;;;;5186052;28;20040;-73
2022/10/31 03:21:20;;;;;;;3.38;3.05;;;10.00;99.90;;;;;;5203811;28;20043;-72
2022/10/31 03:24:13;;;;;;;4.10;3.28;;;10.10;99.90;;;;;;5197676;28;20029;-72
2022/10/31 03:27:08;;;;;;;5.22;3.17;;;10.10;99.90;;;;;;5198824;28;20314;-73
2022/10/31 03:30:05;;;;;;;5.32;3.08;;;10.00;99.90;;;;;;5192113;28;20035;-73
2022/10/31 03:33:05;;;;;;;4.85;3.13;;;10.00;99.90;;;;;;5184938;28;20025;-72
2022/10/31 03:36:00;;;;;;;4.07;3.30;;;10.10;99.90;;;;;;5201702;28;20029;-72
2022/10/31 03:38:58;;;;;;;3.80;2.80;;;10.10;99.90;;;;;;5200099;28;20072;-75
2022/10/31 03:41:58;;;;;;;4.03;3.30;;;10.10;99.90;;;;;;5178218;28;20045;-73
2022/10/31 03:45:20;;;;;;;3.28;2.97;;;10.10;99.90;;;;;;5201393;28;20026;-74
2022/10/31 03:48:18;;;;;;;3.75;3.28;;;10.20;99.90;;;;;;5201220;28;20025;-73
2022/10/31 03:51:24;;;;;;;4.15;3.38;;;10.20;99.90;;;;;;5186342;28;20219;-74
2022/10/31 03:54:34;;;;;;;3.75;2.92;;;10.20;99.90;;;;;;5200501;28;20251;-73
2022/10/31 03:57:35;;;;;;;3.28;2.53;;;10.20;99.90;;;;;;5199973;28;20033;-74
2022/10/31 04:00:26;;;;;;;3.60;3.00;;;10.10;99.90;;;;;;5205404;28;20028;-73
2022/10/31 04:03:27;;;;;;;3.13;2.78;;;10.10;99.90;;;;;;5203535;28;20060;-72
2022/10/31 04:06:23;;;;;;;3.45;2.63;;;10.10;99.90;;;;;;5189494;28;20045;-73
2022/10/31 04:09:16;;;;;;;5.35;2.72;;;10.10;99.90;;;;;;5196324;28;20017;-73
2022/10/31 04:12:14;;;;;;;3.15;2.63;;;10.10;99.90;;;;;;5199841;28;20549;-73
2022/10/31 04:15:10;;;;;;;3.15;2.50;;;10.00;99.90;;;;;;5202507;28;20030;-73
2022/10/31 04:18:08;;;;;;;6.53;2.92;;;9.90;99.90;;;;;;5179057;28;20343;-73
2022/10/31 04:21:05;;;;;;;3.67;2.63;;;9.90;99.90;;;;;;5180398;28;20037;-73
2022/10/31 04:23:59;;;;;;;3.53;2.80;;;9.90;99.90;;;;;;5183341;28;20036;-73
2022/10/31 04:26:57;;;;;;;3.22;2.58;;;9.80;99.90;;;;;;5201004;28;20025;-72
2022/10/31 04:29:51;;;;;;;3.47;2.58;;;9.90;99.90;;;;;;5200782;28;20041;-72
2022/10/31 04:32:43;;;;;;;3.20;2.67;;;9.90;99.90;;;;;;5200693;28;20018;-73
2022/10/31 04:35:37;;;;;;;4.97;2.70;;;9.90;99.90;;;;;;5195987;28;20032;-74
2022/10/31 04:38:28;;;;;;;3.92;3.03;;;9.90;99.90;;;;;;5172907;28;20030;-73
2022/10/31 04:41:19;;;;;;;5.45;3.00;;;9.80;99.90;;;;;;5189167;28;20037;-72
2022/10/31 04:44:11;;;;;;;4.55;2.67;;;9.80;99.90;;;;;;5183914;28;20227;-74
2022/10/31 04:47:04;;;;;;;5.47;3.70;;;9.80;99.90;;;;;;5186493;28;20025;-72
2022/10/31 04:49:56;;;;;;;5.68;4.40;;;9.80;99.90;;;;;;5183884;28;20039;-75
2022/10/31 04:52:47;;;;;;;4.85;3.88;;;9.80;99.90;;;;;;5198354;28;20449;-72
2022/10/31 04:55:39;;;;;;;5.88;3.85;;;9.80;99.90;;;;;;5204561;28;20147;-75
2022/10/31 04:58:31;;;;;;;5.15;3.85;;;9.80;99.90;;;;;;5202758;28;20490;-74
2022/10/31 05:01:26;;;;;;;5.15;3.30;;;9.90;99.90;;;;;;5181483;28;20346;-73
2022/10/31 05:04:17;;;;;;;5.22;3.83;;;9.80;99.90;;;;;;5196908;28;20218;-74
2022/10/31 05:07:08;;;;;;;8.15;3.50;;;9.70;99.90;;;;;;5203352;28;20116;-73
2022/10/31 05:10:00;;;;;;;5.15;3.60;;;9.70;99.90;;;;;;5203105;28;20039;-73
2022/10/31 05:12:56;;;;;;;5.43;3.65;;;9.70;99.90;;;;;;5203096;28;20023;-74
2022/10/31 05:15:49;;;;;;;5.38;4.20;;;9.70;99.90;;;;;;5202858;28;20039;-73
2022/10/31 05:18:40;;;;;;;7.35;4.28;;;9.70;99.90;;;;;;5191556;28;20075;-73
2022/10/31 05:21:32;;;;;;;4.82;3.83;;;9.70;99.90;;;;;;5202505;28;20326;-72
2022/10/31 05:24:23;;;;;;;6.90;4.32;;;9.70;99.90;;;;;;5203144;28;20021;-73
2022/10/31 05:27:15;;;;;;;6.20;4.20;;;9.70;99.90;;;;;;5203736;28;20225;-74
2022/10/31 05:30:10;;;;;;;8.63;3.90;;;9.70;99.90;;;;;;5202881;28;20035;-74
2022/10/31 05:33:01;;;;;;;;;;;9.70;99.90;;;;;;5200005;28;20029;-74
2022/10/31 05:35:53;;;;;;;5.45;3.85;;;9.70;99.90;;;;;;5203292;28;20199;-74
2022/10/31 05:38:44;;;;;;;6.88;4.43;;;9.70;99.90;;;;;;5190055;28;20047;-73
2022/10/31 05:41:36;;;;;;;6.40;4.18;;;9.70;99.90;;;;;;5203035;28;20035;-72
2022/10/31 05:44:32;;;;;;;7.30;4.28;;;9.80;99.90;;;;;;5181288;28;20029;-73
2022/10/31 05:47:24;;;;;;;7.03;3.65;;;9.70;99.90;;;;;;5182294;28;20623;-73
2022/10/31 05:50:15;;;;;;;5.75;3.78;;;9.80;99.90;;;;;;5198589;28;20043;-73
2022/10/31 05:53:13;;;;;;;7.63;4.28;;;9.80;99.90;;;;;;5203067;28;20025;-74
2022/10/31 05:56:07;;;;;;;6.43;4.10;;;9.80;99.90;;;;;;5175213;28;20280;-73
2022/10/31 05:58:58;;;;;;;6.65;4.40;;;9.80;99.90;;;;;;5203689;28;20421;-73
2022/10/31 06:01:52;;;;;;;5.03;3.45;;;9.70;99.90;;;;;;5187778;28;20041;-73
2022/10/31 06:04:45;;;;;;;5.78;4.00;;;9.80;99.90;;;;;;5190392;28;20092;-74
2022/10/31 06:07:39;;;;;;;6.07;3.88;;;9.80;99.90;;;;;;5201534;28;20191;-74
2022/10/31 06:10:30;;;;;;;7.97;4.03;;;9.90;99.90;;;;;;5205317;28;20372;-74
2022/10/31 06:13:22;;;;;;;6.63;3.85;;;9.90;99.90;;;;;;5201338;28;20039;-73
2022/10/31 06:16:16;;;;;;;5.68;3.58;;;9.90;99.90;;;;;;5201729;28;20031;-74
2022/10/31 06:19:07;;;;;;;7.47;4.05;;;9.90;99.90;;;;;;5201299;28;20039;-73
2022/10/31 06:21:59;;;;;;;4.07;3.17;;;9.90;99.90;;;;;;5198708;28;20307;-73
2022/10/31 06:24:55;;;;;;;6.28;4.05;;;10.00;99.90;;;;;;5202080;28;20145;-74
2022/10/31 06:27:46;;;;;;;5.38;3.63;;;10.00;99.90;;;;;;5187537;28;20037;-73
2022/10/31 06:30:40;;;;;;;5.00;3.55;;;10.10;99.90;;;;;;5180698;28;20030;-74
2022/10/31 06:33:36;;;;;;;5.63;3.72;;;10.10;99.90;;;;;;5167225;28;20021;-74
2022/10/31 06:36:31;;;;;;;5.65;3.97;;;10.20;99.90;;;;;;5173408;28;20242;-73
2022/10/31 06:39:28;;;;;;;5.70;4.22;;;10.30;99.90;;;;;;5187680;28;20226;-73
2022/10/31 06:42:19;;;;;;;5.43;3.72;;;10.30;99.90;;;;;;5200400;28;20027;-74
2022/10/31 06:45:11;;;;;;;5.22;3.63;;;10.50;99.90;;;;;;5201518;28;20025;-74
2022/10/31 06:48:07;;;;;;;8.63;3.78;;;10.50;99.90;;;;;;5202102;28;20049;-73
2022/10/31 06:51:00;;;;;;;5.50;3.70;;;10.60;99.90;;;;;;5201082;28;20242;-73
2022/10/31 06:53:51;;;;;;;4.57;3.08;;;10.60;99.90;;;;;;5201591;28;20194;-73
2022/10/31 06:56:46;;;;;;;5.28;3.83;;;10.70;99.90;;;;;;5186493;28;20025;-74
2022/10/31 06:59:38;;;;;;;6.45;4.13;;;10.80;99.90;;;;;;5182354;28;20250;-74
2022/10/31 07:02:29;;;;;;;7.25;4.13;;;10.90;99.90;;;;;;5180596;28;20044;-74
2022/10/31 07:05:23;;;;;;;4.18;3.63;;;11.10;99.90;;;;;;5190541;28;20061;-74
2022/10/31 07:08:17;;;;;;;5.32;3.45;;;11.10;99.90;;;;;;5168491;28;20038;-74
2022/10/31 07:11:11;;;;;;;3.35;3.00;;;11.10;99.90;;;;;;5180625;28;20242;-74
2022/10/31 07:14:05;;;;;;;5.03;3.58;;;11.20;99.90;;;;;;5164408;28;20024;-74
2022/10/31 07:16:59;;;;;;;5.47;3.20;;;11.30;99.90;;;;;;5188947;28;20350;-74
2022/10/31 07:19:50;;;;;;;5.40;3.90;;;11.20;99.90;;;;;;5200021;28;20048;-72
2022/10/31 07:22:42;;;;;;;4.30;3.55;;;11.50;99.90;;;;;;5185886;28;20368;-74
2022/10/31 07:25:35;;;;;;;4.68;3.83;;;11.30;99.90;;;;;;5186683;28;20036;-73
2022/10/31 07:28:33;;;;;;;3.90;3.35;;;11.10;99.90;;;;;;5181576;28;20059;-72
2022/10/31 07:31:28;;;;;;;5.88;3.60;;;11.20;99.90;;;;;;5181066;28;20037;-74
2022/10/31 07:34:19;;;;;;;4.25;2.92;;;11.40;99.90;;;;;;5188249;28;20033;-73
2022/10/31 07:37:34;;;;;;;5.13;3.92;;;11.50;99.90;;;;;;5201659;28;20029;-74
2022/10/31 07:40:25;;;;;;;5.55;4.07;;;11.80;99.90;;;;;;5199260;28;20173;-73
2022/10/31 07:43:17;;;;;;;6.90;4.18;;;12.10;99.90;;;;;;5200822;28;20039;-74
2022/10/31 07:46:13;;;;;;;5.47;4.05;;;12.20;99.90;;;;;;5200666;28;20048;-74
2022/10/31 07:49:05;;;;;;;10.75;3.95;;;12.00;99.90;;;;;;5187315;28;20036;-73
2022/10/31 07:51:56;;;;;;;5.75;4.40;;;11.60;99.90;;;;;;5178578;28;20022;-73
2022/10/31 07:54:48;;;;;;;9.75;4.75;;;11.30;99.90;;;;;;5186485;28;20031;-73
2022/10/31 07:57:42;;;;;;;8.48;4.72;;;11.20;99.90;;;;;;5184485;28;20043;-74
2022/10/31 08:00:37;;;;;;;12.52;4.63;;;11.20;99.90;;;;;;5200582;28;20026;-74
2022/10/31 08:03:29;;;;;;;10.80;5.30;;;11.30;99.90;;;;;;5171818;28;20048;-74
2022/10/31 08:06:21;;;;;;;12.05;4.32;;;11.40;99.90;;;;;;5164653;28;20056;-74
2022/10/31 08:09:12;;;;;;;6.88;4.35;;;11.60;99.90;;;;;;5190643;28;20039;-75
2022/10/31 08:12:10;;;;;;;9.25;5.15;;;11.90;99.90;;;;;;5179882;28;20036;-74
2022/10/31 08:15:01;;;;;;;16.13;5.70;;;12.00;99.90;;;;;;5198683;28;20040;-74
2022/10/31 08:17:53;;;;;;;7.57;5.03;;;12.20;99.90;;;;;;5185815;28;20222;-75
2022/10/31 08:20:45;;;;;;;8.48;5.85;;;12.30;99.90;;;;;;5212281;28;20247;-74
2022/10/31 08:23:37;;;;;;;9.85;6.35;;;12.50;99.90;;;;;;5208286;28;20037;-74
2022/10/31 08:26:30;;;;;;;9.05;5.60;;;12.60;99.90;;;;;;5198420;28;20018;-73
2022/10/31 08:29:27;;;;;;;8.75;5.55;;;12.70;99.90;;;;;;5202283;28;20036;-73
2022/10/31 08:32:18;;;;;;;8.02;5.47;;;12.90;99.90;;;;;;5203708;28;20029;-73
2022/10/31 08:35:12;;;;;;;9.85;6.43;;;12.90;99.90;;;;;;5204345;28;20368;-73
2022/10/31 08:38:04;;;;;;;16.10;5.78;;;13.00;99.90;;;;;;5203668;28;20021;-74
2022/10/31 08:40:56;;;;;;;10.10;5.82;;;12.90;99.90;;;;;;5193595;28;20034;-73
2022/10/31 08:43:50;;;;;;;8.80;5.80;;;13.00;99.90;;;;;;5168735;28;20075;-73
2022/10/31 08:46:42;;;;;;;10.00;6.22;;;13.20;99.90;;;;;;5182831;28;20036;-73
2022/10/31 08:49:34;;;;;;;10.15;6.38;;;13.40;99.90;;;;;;5168900;28;20042;-75
2022/10/31 08:52:26;;;;;;;7.97;5.70;;;13.40;99.90;;;;;;5203594;28;20033;-73
2022/10/31 08:55:17;;;;;;;9.00;5.28;;;13.60;99.90;;;;;;5187511;28;20026;-73
2022/10/31 08:58:22;;;;;;;8.20;5.38;;;13.80;99.90;;;;;;5203351;28;20021;-72
2022/10/31 09:01:16;;;;;;;10.73;5.60;;;13.70;99.90;;;;;;5186471;28;20235;-74
2022/10/31 09:04:07;;;;;;;8.98;5.13;;;13.90;99.90;;;;;;5202851;28;20275;-74
2022/10/31 09:06:59;;;;;;;7.00;4.50;;;14.10;99.90;;;;;;5161038;28;20045;-73
2022/10/31 09:09:53;;;;;;;10.27;5.57;;;14.40;99.90;;;;;;5201514;28;20032;-74
2022/10/31 09:12:44;;;;;;;6.50;4.73;;;14.70;99.90;;;;;;5202777;28;20377;-73
2022/10/31 09:15:40;;;;;;;10.60;6.18;;;14.80;99.90;;;;;;5203872;28;20253;-73
2022/10/31 09:18:31;;;;;;;11.30;5.97;;;14.50;99.90;;;;;;5203923;28;20040;-73
2022/10/31 09:21:23;;;;;;;8.77;4.90;;;14.50;99.90;;;;;;5190020;28;20041;-73
2022/10/31 09:24:14;;;;;;;9.10;5.40;;;14.30;99.90;;;;;;5215993;28;20260;-74
2022/10/31 09:27:08;;;;;;;8.32;5.75;;;14.20;99.90;;;;;;5177790;28;20024;-74
2022/10/31 09:30:04;;;;;;;10.25;5.82;;;13.90;99.90;;;;;;5203254;28;20043;-74
2022/10/31 09:33:12;;;;;;;8.23;6.15;;;14.00;99.90;;;;;;5203699;28;20025;-74
2022/10/31 09:36:04;;;;;;;8.60;5.90;;;13.80;99.90;;;;;;5203323;28;20033;-74
2022/10/31 09:39:00;;;;;;;9.68;5.50;;;13.90;99.90;;;;;;5187345;28;20300;-75
2022/10/31 09:42:12;;;;;;;9.07;6.32;;;14.00;99.90;;;;;;5202478;28;20355;-74
2022/10/31 09:45:17;;;;;;;7.88;5.45;;;13.80;99.90;;;;;;5199875;28;20435;-74
2022/10/31 09:48:38;;;;;;;11.25;7.10;;;13.80;99.90;;;;;;5202326;28;20033;-75
2022/10/31 09:51:38;;;;;;;8.63;5.80;;;14.00;99.90;;;;;;5205529;28;20405;-74
2022/10/31 09:54:40;;;;;;;8.55;5.80;;;13.80;99.90;;;;;;5206099;28;20037;-74
2022/10/31 09:57:35;;;;;;;8.63;4.82;;;13.90;99.90;;;;;;5205287;28;20025;-73
2022/10/31 10:00:26;;;;;;;8.32;6.18;;;13.80;99.90;;;;;;5201480;28;20033;-74
2022/10/31 10:03:28;;;;;;;10.27;6.35;;;13.90;99.90;;;;;;5202917;28;20045;-74
2022/10/31 10:06:25;;;;;;;10.05;6.63;;;13.70;99.90;;;;;;5192479;28;20037;-73
2022/10/31 10:09:22;;;;;;;9.25;5.78;;;13.50;99.90;;;;;;5203139;28;20245;-73
2022/10/31 10:12:28;;;;;;;10.35;6.03;;;13.70;99.90;;;;;;5187640;28;20044;-74
2022/10/31 10:15:22;;;;;;;10.60;6.30;;;13.70;99.90;;;;;;5202365;28;20021;-76
2022/10/31 10:18:33;;;;;;;;;;;13.80;99.90;;;;;;5199692;28;20033;-75
2022/10/31 10:21:53;;;;;;;13.00;6.78;;;13.80;99.90;;;;;;5201335;28;19909;-75
2022/10/31 10:25:23;;;;;;;12.82;6.75;;;13.90;99.90;;;;;;5201795;28;20025;-75
2022/10/31 10:28:26;;;;;;;14.00;7.30;;;14.00;99.90;;;;;;5202972;28;20025;-73
2022/10/31 10:31:26;;;;;;;14.10;7.50;;;14.00;99.90;;;;;;5187114;28;20044;-74
2022/10/31 10:34:41;;;;;;;13.40;7.05;;;14.10;99.90;;;;;;5199439;28;20059;-74
2022/10/31 10:37:44;;;;;;;13.75;8.38;;;14.00;99.90;;;;;;5186283;28;20032;-75
2022/10/31 10:40:38;;;;;;;12.55;7.40;;;14.00;99.90;;;;;;5200773;28;20021;-75
2022/10/31 10:43:35;;;;;;;10.75;7.00;;;14.00;99.90;;;;;;5202437;28;20033;-75
2022/10/31 10:49:55;;;;;;;13.32;7.32;;;14.30;99.90;;;;;;5201443;28;20041;-74
2022/10/31 10:53:35;;;;;;;11.90;8.00;;;14.40;99.90;;;;;;5176166;28;20033;-73
2022/10/31 10:56:54;;;;;;;12.75;7.65;;;14.20;99.90;;;;;;5180686;28;20048;-76
2022/10/31 10:59:46;;;;;;;10.52;7.38;;;14.10;99.90;;;;;;5205431;28;20036;-73
2022/10/31 11:02:38;;;;;;;13.60;7.75;;;14.20;99.90;;;;;;5198569;28;20049;-73
2022/10/31 11:05:51;;;;;;;16.70;9.07;;;14.30;99.90;;;;;;5188122;28;20137;-74
2022/10/31 11:08:45;;;;;;;11.15;7.95;;;14.20;99.90;;;;;;5195618;28;20037;-74
2022/10/31 11:11:38;;;;;;;13.30;7.97;;;14.40;99.90;;;;;;5199116;28;20622;-75
2022/10/31 11:14:30;;;;;;;13.52;8.05;;;14.40;99.90;;;;;;5198923;28;20044;-73
2022/10/31 11:17:29;;;;;;;11.13;7.45;;;14.30;99.90;;;;;;5186729;28;20025;-74
2022/10/31 11:20:35;;;;;;;13.00;7.93;;;14.30;99.90;;;;;;5198307;28;20035;-74
2022/10/31 11:23:28;;;;;;;15.88;8.55;;;14.20;99.90;;;;;;5183340;28;20041;-73
2022/10/31 11:26:20;;;;;;;11.88;8.73;;;14.30;99.90;;;;;;5198749;28;20033;-75
2022/10/31 11:29:25;;;;;;;17.20;8.82;;;14.60;99.90;;;;;;5198234;28;20048;-74
2022/10/31 11:32:26;;;;;;;16.57;8.93;;;14.80;99.90;;;;;;5198875;28;20071;-75
2022/10/31 11:35:21;;;;;;;12.23;8.70;;;15.00;99.90;;;;;;5198283;28;20243;-73
2022/10/31 11:38:24;;;;;;;14.00;9.90;;;15.00;99.90;;;;;;5198672;28;20022;-75
2022/10/31 11:41:46;;;;;;;12.57;8.73;;;14.80;99.90;;;;;;5196203;28;20029;-76
2022/10/31 11:44:42;;;;;;;14.30;8.55;;;14.80;99.90;;;;;;5155849;28;20052;-74
2022/10/31 11:47:36;;;;;;;16.00;10.95;;;15.00;99.90;;;;;;5155986;28;20566;-75
2022/10/31 11:50:50;;;;;;;16.30;10.65;;;14.90;99.90;;;;;;5156796;28;20026;-75
2022/10/31 11:53:53;;;;;;;15.20;9.65;;;14.60;99.90;;;;;;5156191;28;20209;-75
2022/10/31 11:56:45;;;;;;;12.82;9.35;;;14.80;99.90;;;;;;5134419;28;20036;-74
2022/10/31 11:59:50;;;;;;;11.98;9.23;;;14.70;99.90;;;;;;5144081;28;20065;-75
2022/10/31 12:02:42;;;;;;;14.93;10.10;;;14.80;99.90;;;;;;5108271;28;1280909;-74
2022/10/31 12:05:40;;;;;;;12.73;9.68;;;14.80;99.90;;;;;;5150560;28;20073;-75
2022/10/31 12:08:35;;;;;;;15.23;10.00;;;15.00;99.90;;;;;;5160490;28;20073;-74
2022/10/31 12:11:30;;;;;;;;;;;15.00;99.90;;;;;;5160899;28;20354;-73
2022/10/31 12:14:58;;;;;;;13.75;9.30;;;14.90;99.90;;;;;;5159610;28;20215;-76
2022/10/31 12:18:12;;;;;;;12.95;9.73;;;15.00;99.90;;;;;;5145958;28;20041;-73
2022/10/31 12:21:29;;;;;;;13.82;9.63;;;15.00;99.90;;;;;;5173681;28;20215;-73
2022/10/31 12:24:35;;;;;;;13.55;10.13;;;15.10;99.90;;;;;;5180819;28;20052;-74
2022/10/31 12:27:48;;;;;;;17.27;10.55;;;15.10;99.90;;;;;;5184358;28;20100;-73
2022/10/31 12:31:00;;;;;;;14.70;9.85;;;14.80;99.90;;;;;;5183049;28;20029;-74
2022/10/31 12:34:01;;;;;;;17.65;11.73;;;14.70;99.90;;;;;;5180005;28;20410;-74
2022/10/31 12:37:15;;;;;;;17.00;11.48;;;14.20;99.90;;;;;;5180257;28;20029;-74
2022/10/31 12:40:28;;;;;;;17.48;11.80;;;14.20;99.90;;;;;;5181073;28;20359;-73
2022/10/31 12:43:56;;;;;;;16.98;12.15;;;14.30;99.90;;;;;;5180819;28;20371;-74
2022/10/31 12:47:11;;;;;;;18.80;12.07;;;14.00;99.90;;;;;;5187768;28;20025;-74
2022/10/31 12:50:20;;;;;;;26.77;14.77;;;13.80;99.90;;;;;;5188374;28;20021;-73
2022/10/31 12:53:22;;;;;;;27.80;16.85;;;13.60;99.90;;;;;;5193973;28;20258;-74
2022/10/31 12:56:29;;;;;;;21.05;13.45;;;13.70;99.90;;;;;;5202139;28;20037;-74
2022/10/31 12:59:23;;;;;;;17.98;11.80;;;13.40;99.90;;;;;;5181873;28;20044;-74
2022/10/31 13:02:26;;;;;;;21.15;12.52;;;13.50;99.90;;;;;;5193251;28;20051;-73
2022/10/31 13:05:32;;;;;;;23.38;13.15;;;13.50;99.90;;;;;;5192356;28;20624;-74
2022/10/31 13:08:41;;;;;;;15.23;11.60;;;13.30;99.90;;;;;;5188818;28;20343;-74
2022/10/31 13:11:39;;;;;;;18.33;11.45;;;13.40;99.90;;;;;;5201214;28;20041;-74
2022/10/31 13:14:36;;;;;;;20.02;13.50;;;13.20;99.90;;;;;;5201931;28;20026;-75
2022/10/31 13:17:34;;;;;;;20.65;12.57;;;13.20;99.90;;;;;;5187510;28;20356;-75
2022/10/31 13:20:38;;;;;;;19.52;14.00;;;13.10;99.90;;;;;;5201762;28;20063;-74
2022/10/31 13:23:34;;;;;;;24.75;14.95;;;13.10;99.90;;;;;;5180662;28;20626;-74
2022/10/31 13:26:35;;;;;;;23.88;14.23;;;13.10;99.90;;;;;;5180107;28;20037;-75
2022/10/31 13:30:02;;;;;;;25.45;15.82;;;13.10;99.90;;;;;;5177983;28;20036;-74
2022/10/31 13:33:08;;;;;;;27.65;18.85;;;13.00;99.90;;;;;;5201425;28;20327;-75
2022/10/31 13:36:14;;;;;;;22.60;14.77;;;13.20;99.90;;;;;;5201827;28;20032;-73
2022/10/31 13:39:33;;;;;;;24.30;14.45;;;13.30;99.90;;;;;;5180420;28;20029;-74
2022/10/31 13:42:42;;;;;;;25.90;16.27;;;13.40;99.90;;;;;;5159118;28;20046;-73
2022/10/31 13:45:34;;;;;;;26.10;16.38;;;13.30;99.90;;;;;;5167567;28;20343;-74
2022/10/31 13:48:28;;;;;;;27.23;16.52;;;13.20;99.90;;;;;;5167370;28;20345;-75
2022/10/31 13:51:35;;;;;;;25.25;14.98;;;13.00;99.90;;;;;;5183273;28;20034;-75
2022/10/31 13:54:34;;;;;;;30.20;16.90;;;12.90;99.90;;;;;;5181043;28;20240;-72
2022/10/31 13:57:40;;;;;;;29.67;15.88;;;12.70;99.90;;;;;;5182479;28;20029;-75
2022/10/31 14:00:37;;;;;;;21.45;13.65;;;12.60;99.90;;;;;;5196664;28;20274;-75
2022/10/31 14:03:33;;;;;;;21.80;13.40;;;12.70;99.90;;;;;;5180614;28;20042;-74
2022/10/31 14:06:56;;;;;;;26.98;15.40;;;12.60;99.90;;;;;;5169240;28;20054;-73
2022/10/31 14:09:54;;;;;;;23.13;15.10;;;12.60;99.90;;;;;;5199679;28;20041;-73
2022/10/31 14:12:49;;;;;;;25.08;14.40;;;12.50;99.90;;;;;;5201057;28;20032;-73
2022/10/31 14:16:02;;;;;;;25.20;16.23;;;12.60;99.90;;;;;;5171783;28;20026;-74
2022/10/31 14:19:18;;;;;;;27.38;14.65;;;12.60;99.90;;;;;;5217266;28;20039;-75
2022/10/31 14:22:21;;;;;;;25.90;14.85;;;12.40;99.90;;;;;;5179306;28;20048;-74
2022/10/31 14:25:51;;;;;;;25.10;14.27;;;12.20;99.90;;;;;;5179141;28;20312;-74
2022/10/31 14:28:44;;;;;;;20.20;13.00;;;12.10;99.90;;;;;;5140435;28;20424;-75
2022/10/31 14:31:42;;;;;;;28.88;16.63;;;11.90;99.90;;;;;;5157113;28;20330;-75
2022/10/31 14:34:43;;;;;;;24.00;14.82;;;11.80;99.90;;;;;;5157378;28;21235;-75
2022/10/31 14:38:12;;;;;;;27.40;14.75;;;11.70;99.90;;;;;;5156269;28;20040;-74
2022/10/31 14:41:40;;;;;;;23.92;14.45;;;11.90;99.90;;;;;;5150240;28;20034;-73
2022/10/31 14:45:05;;;;;;;25.85;13.30;;;12.10;99.90;;;;;;5151101;28;20316;-75
2022/10/31 14:48:24;;;;;;;23.75;13.57;;;12.10;99.90;;;;;;5142499;28;20117;-75
2022/10/31 14:51:24;;;;;;;26.17;13.75;;;11.90;99.90;;;;;;5171674;28;20260;-74
2022/10/31 14:54:27;;;;;;;28.83;14.68;;;11.90;99.90;;;;;;5140473;28;20740;-75
2022/10/31 14:57:25;;;;;;;22.02;12.80;;;11.90;99.90;;;;;;5158024;28;20042;-75
2022/10/31 15:00:22;;;;;;;26.08;14.32;;;11.90;99.90;;;;;;5180469;28;20251;-73
2022/10/31 15:03:27;;;;;;;25.38;13.60;;;12.00;99.90;;;;;;5198858;28;20141;-75
2022/10/31 15:06:22;;;;;;;32.08;16.90;;;12.00;99.90;;;;;;5189525;28;20291;-75
2022/10/31 15:09:25;;;;;;;22.25;13.15;;;12.10;99.90;;;;;;5184725;28;20029;-75
2022/10/31 15:12:38;;;;;;;23.85;13.95;;;12.10;99.90;;;;;;5184628;28;20033;-75
2022/10/31 15:15:33;;;;;;;24.85;14.13;;;12.20;99.90;;;;;;5199037;28;20026;-74
2022/10/31 15:18:27;;;;;;;26.95;13.45;;;12.10;99.90;;;;;;5174479;28;20600;-74
2022/10/31 15:21:21;;;;;;;26.33;14.07;;;12.00;99.90;;;;;;5180447;28;20036;-73
2022/10/31 15:24:18;;;;;;;24.23;13.20;;;11.90;99.90;;;;;;5199276;28;20037;-74